createdAt,value
2023-01-17T00:00:54.209Z,48.50
2023-01-17T00:03:30.689Z,47.20
2023-01-17T00:06:22.567Z,43.30
2023-01-17T00:09:12.117Z,45.30
2023-01-17T00:11:44.737Z,45.50
2023-01-17T00:14:16.913Z,44.10
2023-01-17T00:16:49.102Z,42.60
2023-01-17T00:19:39.219Z,43.80
2023-01-17T00:22:38.875Z,40.00
2023-01-17T00:25:31.074Z,44.10
2023-01-17T00:28:02.440Z,45.10
2023-01-17T00:30:33.906Z,44.80
2023-01-17T00:33:05.868Z,41.30
2023-01-17T00:35:36.865Z,42.20
2023-01-17T00:38:09.793Z,42.30
2023-01-17T00:40:42.380Z,47.80
2023-01-17T00:43:33.558Z,43.80
2023-01-17T00:46:23.823Z,49.00
2023-01-17T00:49:13.432Z,44.30
2023-01-17T00:52:03.036Z,41.80
2023-01-17T00:54:52.957Z,42.00
2023-01-17T00:57:42.561Z,46.60
2023-01-17T01:00:33.966Z,44.20
2023-01-17T01:03:28.985Z,37.10
2023-01-17T01:06:22.577Z,47.70
2023-01-17T01:09:12.793Z,45.40
2023-01-17T01:12:04.727Z,43.40
2023-01-17T01:14:54.283Z,46.30
2023-01-17T01:17:43.943Z,43.80
2023-01-17T01:20:34.082Z,40.10
2023-01-17T01:23:25.429Z,38.70
2023-01-17T01:26:14.985Z,42.00
2023-01-17T01:29:04.521Z,44.20
2023-01-17T01:31:54.187Z,43.90
2023-01-17T01:34:26.500Z,42.00
2023-01-17T01:36:58.691Z,41.50
2023-01-17T01:39:30.902Z,44.70
2023-01-17T01:42:03.192Z,38.40
2023-01-17T01:44:52.688Z,45.30
2023-01-17T01:47:30.185Z,43.50
2023-01-17T01:50:04.764Z,41.60
2023-01-17T01:52:40.595Z,39.80
2023-01-17T01:55:16.460Z,42.70
2023-01-17T02:00:27.842Z,39.90
2023-01-17T02:03:03.728Z,42.00
2023-01-17T02:05:36.818Z,43.90
2023-01-17T02:08:12.114Z,40.40
2023-01-17T02:10:45.249Z,37.80
2023-01-17T02:13:20.695Z,42.60
2023-01-17T02:16:04.166Z,41.60
2023-01-17T02:18:50.383Z,41.20
2023-01-17T02:21:27.504Z,38.80
2023-01-17T02:24:34.668Z,40.80
2023-01-17T02:27:14.391Z,41.20
2023-01-17T02:30:21.319Z,46.40
2023-01-17T02:33:17.794Z,44.30
2023-01-17T02:35:59.776Z,38.10
2023-01-17T02:38:40.913Z,46.90
2023-01-17T02:41:19.727Z,41.30
2023-01-17T02:43:53.476Z,43.70
2023-01-17T02:46:26.019Z,39.40
2023-01-17T02:49:00.479Z,43.10
2023-01-17T02:51:52.458Z,42.00
2023-01-17T02:54:49.191Z,43.70
2023-01-17T03:00:06.644Z,44.00
2023-01-17T03:02:47.380Z,39.90
2023-01-17T03:05:23.405Z,41.70
2023-01-17T03:07:58.008Z,40.30
2023-01-17T03:10:32.316Z,42.20
2023-01-17T03:13:05.478Z,39.10
2023-01-17T03:15:37.726Z,40.40
2023-01-17T03:18:14.028Z,38.90
2023-01-17T03:20:46.362Z,44.30
2023-01-17T03:23:18.551Z,42.40
2023-01-17T03:25:50.782Z,46.90
2023-01-17T03:28:23.149Z,42.00
2023-01-17T03:30:55.504Z,44.40
2023-01-17T03:33:28.828Z,42.70
2023-01-17T03:36:01.027Z,43.80
2023-01-17T03:38:33.305Z,42.70
2023-01-17T03:41:05.610Z,42.70
2023-01-17T03:43:38.820Z,43.30
2023-01-17T03:46:22.443Z,42.80
2023-01-17T03:48:54.828Z,42.00
2023-01-17T03:51:27.243Z,40.70
2023-01-17T03:53:59.456Z,38.90
2023-01-17T03:56:31.668Z,40.30
2023-01-17T03:59:03.948Z,45.90
2023-01-17T04:01:36.252Z,43.30
2023-01-17T04:04:08.536Z,43.90
2023-01-17T04:06:40.860Z,43.10
2023-01-17T04:09:13.186Z,43.60
2023-01-17T04:11:45.458Z,41.30
2023-01-17T04:14:17.733Z,41.60
2023-01-17T04:16:50.025Z,41.80
2023-01-17T04:19:22.688Z,39.10
2023-01-17T04:21:54.966Z,40.70
2023-01-17T04:24:27.121Z,44.90
2023-01-17T04:26:59.832Z,41.90
2023-01-17T04:29:32.021Z,37.20
2023-01-17T04:32:04.292Z,39.30
2023-01-17T04:34:36.527Z,37.10
2023-01-17T04:37:08.755Z,39.20
2023-01-17T04:39:40.948Z,37.70
2023-01-17T04:42:13.123Z,38.40
2023-01-17T04:44:45.380Z,42.20
2023-01-17T04:47:17.563Z,40.10
2023-01-17T04:49:49.968Z,37.10
2023-01-17T04:52:22.881Z,41.80
2023-01-17T04:54:55.124Z,39.90
2023-01-17T04:57:27.544Z,42.00
2023-01-17T05:00:00.019Z,36.40
2023-01-17T05:02:32.355Z,33.60
2023-01-17T05:05:04.632Z,36.90
2023-01-17T05:07:36.915Z,40.40
2023-01-17T05:10:11.032Z,42.40
2023-01-17T05:12:43.331Z,40.60
2023-01-17T05:15:15.784Z,39.70
2023-01-17T05:17:47.962Z,38.00
2023-01-17T05:20:20.812Z,45.60
2023-01-17T05:22:56.669Z,46.20
2023-01-17T05:28:01.428Z,42.70
2023-01-17T05:30:35.216Z,45.80
2023-01-17T05:33:09.577Z,47.00
2023-01-17T05:35:41.865Z,42.50
2023-01-17T05:38:14.200Z,47.00
2023-01-17T05:40:46.435Z,42.60
2023-01-17T05:43:19.784Z,37.50
2023-01-17T05:45:52.106Z,47.10
2023-01-17T05:48:24.383Z,47.10
2023-01-17T05:50:56.596Z,45.30
2023-01-17T05:53:29.260Z,46.10
2023-01-17T05:56:01.486Z,38.80
2023-01-17T05:58:33.828Z,41.90
2023-01-17T06:01:06.261Z,44.00
2023-01-17T06:03:38.566Z,34.90
2023-01-17T06:06:11.094Z,40.00
2023-01-17T06:08:43.265Z,40.70
2023-01-17T06:11:15.562Z,41.80
2023-01-17T06:13:49.247Z,36.60
2023-01-17T06:16:21.452Z,41.20
2023-01-17T06:18:54.493Z,37.40
2023-01-17T06:21:26.764Z,38.00
2023-01-17T06:23:59.226Z,41.20
2023-01-17T06:26:31.622Z,43.00
2023-01-17T06:29:04.282Z,33.30
2023-01-17T06:31:37.286Z,43.60
2023-01-17T06:34:09.549Z,35.60
2023-01-17T06:36:41.920Z,37.00
2023-01-17T06:39:15.179Z,37.90
2023-01-17T06:41:47.505Z,37.50
2023-01-17T06:44:19.866Z,40.50
2023-01-17T06:46:52.182Z,41.10
2023-01-17T06:49:24.532Z,45.20
2023-01-17T06:51:56.810Z,37.90
2023-01-17T06:54:29.086Z,38.00
2023-01-17T06:57:01.419Z,39.90
2023-01-17T06:59:33.705Z,41.90
2023-01-17T07:02:06.118Z,41.20
2023-01-17T07:04:38.941Z,37.40
2023-01-17T07:07:11.586Z,39.60
2023-01-17T07:09:44.161Z,39.10
2023-01-17T07:12:16.866Z,36.50
2023-01-17T07:14:49.068Z,35.60
2023-01-17T07:17:21.252Z,39.40
2023-01-17T07:19:53.550Z,45.20
2023-01-17T07:22:25.928Z,46.20
2023-01-17T07:24:59.700Z,59.30
2023-01-17T07:27:33.705Z,39.30
2023-01-17T07:30:06.916Z,38.80
2023-01-17T07:32:39.271Z,41.40
2023-01-17T07:35:12.136Z,42.90
2023-01-17T07:37:50.238Z,42.70
2023-01-17T07:40:23.735Z,42.60
2023-01-17T07:43:01.544Z,38.40
2023-01-17T07:45:33.825Z,37.30
2023-01-17T07:48:06.458Z,40.30
2023-01-17T07:50:39.133Z,40.20
2023-01-17T07:53:13.223Z,40.50
2023-01-17T07:55:45.805Z,44.20
2023-01-17T07:58:18.322Z,39.60
2023-01-17T08:00:50.763Z,45.60
2023-01-17T08:03:23.095Z,46.20
2023-01-17T08:05:57.780Z,48.10
2023-01-17T08:08:30.735Z,42.60
2023-01-17T08:11:03.054Z,45.80
2023-01-17T08:13:35.317Z,45.50
2023-01-17T08:16:08.797Z,51.00
2023-01-17T08:18:41.510Z,45.30
2023-01-17T08:21:17.883Z,44.90
2023-01-17T08:23:52.469Z,44.00
2023-01-17T08:26:25.128Z,49.40
2023-01-17T08:29:01.142Z,47.90
2023-01-17T08:31:35.725Z,48.50
2023-01-17T08:34:07.920Z,56.00
2023-01-17T08:36:40.174Z,49.10
2023-01-17T08:39:13.193Z,49.60
2023-01-17T08:41:45.486Z,48.30
2023-01-17T08:44:19.910Z,49.80
2023-01-17T08:46:52.297Z,54.10
2023-01-17T08:49:24.558Z,54.10
2023-01-17T08:51:56.908Z,52.50
2023-01-17T08:54:29.659Z,50.40
2023-01-17T08:57:03.526Z,51.60
2023-01-17T08:59:35.838Z,65.30
2023-01-17T09:02:15.140Z,54.50
2023-01-17T09:04:48.748Z,49.90
2023-01-17T09:07:22.331Z,60.90
2023-01-17T09:09:54.686Z,41.80
2023-01-17T09:12:26.883Z,51.90
2023-01-17T09:14:59.040Z,45.70
2023-01-17T09:17:31.259Z,49.50
2023-01-17T09:20:03.432Z,44.70
2023-01-17T09:22:36.196Z,49.10
2023-01-17T09:25:10.159Z,54.90
2023-01-17T09:27:45.546Z,44.50
2023-01-17T09:30:19.036Z,48.40
2023-01-17T09:32:56.356Z,48.90
2023-01-17T09:35:28.601Z,49.70
2023-01-17T09:38:00.888Z,49.10
2023-01-17T09:40:33.301Z,51.30
2023-01-17T09:43:16.175Z,50.30
2023-01-17T09:45:49.135Z,50.30
2023-01-17T09:48:33.113Z,44.90
2023-01-17T09:51:09.765Z,52.80
2023-01-17T09:53:44.475Z,45.60
2023-01-17T09:56:21.163Z,47.50
2023-01-17T09:59:05.671Z,48.50
2023-01-17T10:01:42.973Z,47.90
2023-01-17T10:04:29.245Z,45.60
2023-01-17T10:07:12.766Z,45.60
2023-01-17T10:10:11.249Z,44.80
2023-01-17T10:12:54.846Z,47.90
2023-01-17T10:15:47.098Z,46.40
2023-01-17T10:18:43.081Z,45.50
2023-01-17T10:21:22.179Z,49.60
2023-01-17T10:24:16.670Z,49.30
2023-01-17T10:26:52.826Z,49.30
2023-01-17T10:29:29.420Z,48.60
2023-01-17T10:32:02.944Z,46.20
2023-01-17T10:34:43.881Z,43.10
2023-01-17T10:37:22.176Z,50.40
2023-01-17T10:39:58.432Z,49.60
2023-01-17T10:42:39.218Z,45.20
2023-01-17T10:45:21.741Z,47.10
2023-01-17T10:48:02.727Z,45.30
2023-01-17T10:50:43.134Z,50.50
2023-01-17T10:53:24.462Z,49.10
2023-01-17T10:55:56.651Z,44.90
2023-01-17T10:58:29.485Z,44.50
2023-01-17T11:01:04.054Z,45.90
2023-01-17T11:03:37.336Z,47.30
2023-01-17T11:06:21.281Z,45.70
2023-01-17T11:08:56.504Z,32.20
2023-01-17T11:11:32.132Z,32.60
2023-01-17T11:14:20.650Z,24.30
2023-01-17T11:17:05.442Z,25.20
2023-01-17T11:19:39.623Z,23.20
2023-01-17T11:22:17.343Z,19.60
2023-01-17T11:24:56.257Z,19.00
2023-01-17T11:27:31.121Z,23.60
2023-01-17T11:30:16.960Z,18.30
2023-01-17T11:32:57.506Z,20.40
2023-01-17T11:35:32.281Z,23.40
2023-01-17T11:38:16.044Z,19.20
2023-01-17T11:40:49.725Z,16.30
2023-01-17T11:43:24.914Z,21.50
2023-01-17T11:46:17.109Z,25.00
2023-01-17T11:48:55.975Z,16.90
2023-01-17T11:51:31.420Z,17.70
2023-01-17T11:54:19.478Z,19.20
2023-01-17T11:56:57.993Z,18.70
2023-01-17T11:59:35.266Z,20.90
2023-01-17T12:02:33.301Z,16.80
2023-01-17T12:05:18.698Z,17.00
2023-01-17T12:08:00.315Z,14.60
2023-01-17T12:10:40.267Z,22.40
2023-01-17T12:13:41.525Z,24.20
2023-01-17T12:16:33.830Z,22.50
2023-01-17T12:19:32.476Z,16.70
2023-01-17T12:22:23.694Z,12.40
2023-01-17T12:25:25.727Z,13.30
2023-01-17T12:28:19.430Z,15.10
2023-01-17T12:31:04.964Z,13.00
2023-01-17T12:33:48.363Z,14.20
2023-01-17T12:36:33.584Z,13.80
2023-01-17T12:39:08.095Z,12.90
2023-01-17T12:41:52.100Z,11.60
2023-01-17T12:44:34.603Z,15.40
2023-01-17T12:47:08.512Z,10.80
2023-01-17T12:49:47.112Z,10.10
2023-01-17T12:52:25.185Z,12.00
2023-01-17T12:55:04.321Z,8.10
2023-01-17T12:57:41.236Z,7.00
2023-01-17T13:00:23.253Z,6.90
2023-01-17T13:03:05.265Z,16.40
2023-01-17T13:05:44.958Z,8.10
2023-01-17T13:08:27.271Z,5.10
2023-01-17T13:11:05.555Z,6.30
2023-01-17T13:13:39.296Z,4.50
2023-01-17T13:16:16.341Z,3.60
2023-01-17T13:18:50.400Z,5.80
2023-01-17T13:21:33.491Z,5.40
2023-01-17T13:24:28.002Z,5.50
2023-01-17T13:27:17.969Z,3.20
2023-01-17T13:30:04.803Z,5.90
2023-01-17T13:33:12.726Z,6.90
2023-01-17T13:35:58.213Z,12.90
2023-01-17T13:38:55.076Z,2.90
2023-01-17T13:41:46.936Z,3.20
2023-01-17T13:44:25.611Z,4.60
2023-01-17T13:47:04.307Z,8.80
2023-01-17T13:49:56.806Z,6.60
2023-01-17T13:52:33.848Z,7.50
2023-01-17T13:55:07.979Z,7.60
2023-01-17T13:57:42.327Z,7.20
2023-01-17T14:00:59.218Z,5.20
2023-01-17T14:04:08.961Z,3.50
2023-01-17T14:06:44.950Z,5.00
2023-01-17T14:09:23.347Z,4.10
2023-01-17T14:12:02.207Z,4.60
2023-01-17T14:14:48.861Z,8.00
2023-01-17T14:17:49.216Z,5.80
2023-01-17T14:21:00.778Z,9.90
2023-01-17T14:23:51.767Z,10.60
2023-01-17T14:26:30.389Z,5.90
2023-01-17T14:29:40.425Z,7.80
2023-01-17T14:32:16.670Z,8.20
2023-01-17T14:34:50.973Z,5.10
2023-01-17T14:37:31.406Z,7.90
2023-01-17T14:40:14.508Z,5.40
2023-01-17T14:42:48.571Z,5.80
2023-01-17T14:45:28.248Z,7.00
2023-01-17T14:48:02.967Z,9.60
2023-01-17T14:50:39.763Z,8.30
2023-01-17T14:53:19.599Z,16.30
2023-01-17T14:55:57.768Z,21.20
2023-01-17T14:58:32.171Z,23.20
2023-01-17T15:01:08.182Z,33.40
2023-01-17T15:03:46.188Z,28.20
2023-01-17T15:06:22.211Z,26.60
2023-01-17T15:08:55.146Z,27.50
2023-01-17T15:11:30.358Z,26.10
2023-01-17T15:14:06.327Z,33.00
2023-01-17T15:16:41.244Z,33.80
2023-01-17T15:19:15.999Z,29.00
2023-01-17T15:21:50.751Z,25.30
2023-01-17T15:24:27.733Z,29.60
2023-01-17T15:27:00.135Z,31.90
2023-01-17T15:29:35.216Z,28.80
2023-01-17T15:32:09.335Z,30.10
2023-01-17T15:34:45.794Z,31.60
2023-01-17T15:37:32.708Z,32.80
2023-01-17T15:40:18.841Z,33.10
2023-01-17T15:45:27.467Z,28.90
2023-01-17T15:48:19.800Z,30.60
2023-01-17T15:51:00.510Z,33.70
2023-01-17T15:53:34.714Z,32.10
2023-01-17T15:59:30.669Z,39.20
2023-01-17T16:02:02.979Z,30.70
2023-01-17T16:04:37.861Z,42.50
2023-01-17T16:07:20.412Z,43.20
2023-01-17T16:09:52.799Z,37.40
2023-01-17T16:12:25.052Z,32.80
2023-01-17T16:15:11.220Z,34.50
2023-01-17T16:17:48.319Z,35.00
2023-01-17T16:20:26.106Z,39.60
2023-01-17T16:23:00.307Z,37.70
2023-01-17T16:25:33.510Z,42.20
2023-01-17T16:28:06.543Z,39.70
2023-01-17T16:30:39.152Z,43.50
2023-01-17T16:33:14.373Z,38.50
2023-01-17T16:35:46.831Z,42.00
2023-01-17T16:38:19.925Z,39.60
2023-01-17T16:40:52.144Z,36.60
2023-01-17T16:43:24.358Z,31.60
2023-01-17T16:45:56.634Z,36.00
2023-01-17T16:48:28.845Z,37.70
2023-01-17T16:51:05.898Z,28.70
2023-01-17T16:53:38.634Z,32.30
2023-01-17T16:56:14.134Z,31.10
2023-01-17T16:58:46.520Z,31.00
2023-01-17T17:01:21.393Z,33.30
2023-01-17T17:03:53.712Z,30.20
2023-01-17T17:06:26.008Z,25.30
2023-01-17T17:08:59.889Z,27.80
2023-01-17T17:11:32.176Z,29.50
2023-01-17T17:14:04.900Z,30.10
2023-01-17T17:16:37.229Z,30.00
2023-01-17T17:19:09.764Z,27.20
2023-01-17T17:21:42.010Z,25.30
2023-01-17T17:24:16.094Z,24.00
2023-01-17T17:26:48.386Z,28.10
2023-01-17T17:29:20.829Z,27.60
2023-01-17T17:31:53.958Z,27.30
2023-01-17T17:34:27.764Z,30.40
2023-01-17T17:37:00.225Z,28.90
2023-01-17T17:39:33.417Z,33.00
2023-01-17T17:42:06.049Z,30.60
2023-01-17T17:44:38.546Z,32.60
2023-01-17T17:47:13.062Z,33.40
2023-01-17T17:49:45.297Z,28.20
2023-01-17T17:52:17.650Z,32.40
2023-01-17T17:54:50.704Z,30.40
2023-01-17T17:57:23.010Z,31.80
2023-01-17T17:59:56.831Z,32.30
2023-01-17T18:02:29.179Z,37.30
2023-01-17T18:05:02.486Z,39.90
2023-01-17T18:07:35.593Z,35.60
2023-01-17T18:10:09.951Z,35.50
2023-01-17T18:12:42.240Z,38.70
2023-01-17T18:15:14.731Z,33.00
2023-01-17T18:17:47.526Z,36.00
2023-01-17T18:20:20.272Z,39.50
2023-01-17T18:22:53.755Z,39.10
2023-01-17T18:25:26.021Z,37.30
2023-01-17T18:27:58.786Z,41.40
2023-01-17T18:30:38.526Z,41.50
2023-01-17T18:33:10.877Z,41.90
2023-01-17T18:35:43.664Z,49.20
2023-01-17T18:38:20.952Z,48.20
2023-01-17T18:40:54.591Z,44.20
2023-01-17T18:43:28.889Z,39.90
2023-01-17T18:46:01.342Z,40.10
2023-01-17T18:48:33.657Z,36.80
2023-01-17T18:51:08.297Z,39.90
2023-01-17T18:53:41.800Z,42.40
2023-01-17T18:56:17.269Z,36.80
2023-01-17T18:58:51.548Z,40.10
2023-01-17T19:01:25.598Z,43.80
2023-01-17T19:03:59.627Z,40.80
2023-01-17T19:06:33.995Z,47.40
2023-01-17T19:09:07.753Z,40.20
2023-01-17T19:11:40.581Z,42.50
2023-01-17T19:14:14.527Z,34.10
2023-01-17T19:16:46.859Z,45.40
2023-01-17T19:19:19.157Z,40.80
2023-01-17T19:21:53.853Z,43.90
2023-01-17T19:24:26.590Z,36.80
2023-01-17T19:26:58.941Z,43.00
2023-01-17T19:29:31.252Z,34.20
2023-01-17T19:32:03.478Z,36.80
2023-01-17T19:34:35.810Z,43.40
2023-01-17T19:37:08.133Z,41.50
2023-01-17T19:39:40.396Z,49.60
2023-01-17T19:42:15.695Z,41.40
2023-01-17T19:44:48.005Z,34.50
2023-01-17T19:47:20.348Z,36.20
2023-01-17T19:49:52.645Z,36.40
2023-01-17T19:52:26.356Z,35.50
2023-01-17T19:54:58.662Z,33.50
2023-01-17T19:57:35.042Z,31.60
2023-01-17T20:00:13.679Z,31.30
2023-01-17T20:02:46.076Z,25.80
2023-01-17T20:05:19.687Z,25.60
2023-01-17T20:07:51.998Z,26.40
2023-01-17T20:10:25.354Z,25.60
2023-01-17T20:12:57.558Z,22.10
2023-01-17T20:15:31.133Z,26.10
2023-01-17T20:18:05.023Z,23.80
2023-01-17T20:20:46.115Z,36.20
2023-01-17T20:23:28.567Z,26.80
2023-01-17T20:26:01.712Z,25.40
2023-01-17T20:28:35.839Z,26.60
2023-01-17T20:31:10.093Z,23.40
2023-01-17T20:33:43.956Z,35.10
2023-01-17T20:36:17.959Z,29.20
2023-01-17T20:38:50.522Z,28.00
2023-01-17T20:41:24.739Z,27.50
2023-01-17T20:43:58.406Z,25.10
2023-01-17T20:46:35.412Z,23.70
2023-01-17T20:49:10.192Z,25.30
2023-01-17T20:51:44.312Z,23.30
2023-01-17T20:54:18.885Z,32.50
2023-01-17T20:56:51.585Z,25.40
2023-01-17T20:59:24.418Z,23.90
2023-01-17T21:01:56.897Z,21.90
2023-01-17T21:04:29.460Z,22.30
2023-01-17T21:07:01.795Z,20.50
2023-01-17T21:09:34.599Z,24.20
2023-01-17T21:12:07.096Z,19.50
2023-01-17T21:14:40.764Z,19.30
2023-01-17T21:17:16.174Z,16.00
2023-01-17T21:19:48.405Z,19.80
2023-01-17T21:22:20.772Z,19.10
2023-01-17T21:24:54.126Z,17.50
2023-01-17T21:27:26.323Z,19.10
2023-01-17T21:29:59.526Z,20.40
2023-01-17T21:32:31.873Z,23.30
2023-01-17T21:35:04.126Z,21.30
2023-01-17T21:37:36.586Z,17.40
2023-01-17T21:40:10.485Z,19.60
2023-01-17T21:42:42.770Z,13.10
2023-01-17T21:45:15.377Z,13.80
2023-01-17T21:47:48.069Z,12.00
2023-01-17T21:50:32.675Z,13.10
2023-01-17T21:53:06.052Z,16.10
2023-01-17T21:55:55.929Z,17.90
2023-01-17T21:58:46.466Z,10.70
2023-01-17T22:01:22.106Z,13.70
2023-01-17T22:03:56.941Z,10.00
2023-01-17T22:06:30.921Z,12.90
2023-01-17T22:09:03.231Z,11.10
2023-01-17T22:11:37.450Z,18.70
2023-01-17T22:14:09.838Z,13.60
2023-01-17T22:16:42.168Z,10.80
2023-01-17T22:19:14.511Z,13.70
2023-01-17T22:21:46.783Z,13.00
2023-01-17T22:24:19.328Z,11.90
2023-01-17T22:26:51.588Z,18.00
2023-01-17T22:29:23.796Z,9.90
2023-01-17T22:31:55.970Z,9.60
2023-01-17T22:34:28.477Z,8.40
2023-01-17T22:37:02.540Z,10.20
2023-01-17T22:39:34.719Z,11.00
2023-01-17T22:42:07.366Z,13.00
2023-01-17T22:44:39.683Z,9.20
2023-01-17T22:47:12.110Z,13.80
2023-01-17T22:49:44.389Z,17.90
2023-01-17T22:52:16.686Z,8.90
2023-01-17T22:54:49.092Z,11.30
2023-01-17T22:57:21.700Z,10.50
2023-01-17T22:59:54.011Z,8.60
2023-01-17T23:02:26.345Z,10.70
2023-01-17T23:04:58.722Z,10.20
2023-01-17T23:07:43.030Z,21.00
2023-01-17T23:10:38.330Z,14.80
2023-01-17T23:13:12.501Z,11.00
2023-01-17T23:16:02.178Z,12.80
2023-01-17T23:19:03.600Z,7.40
2023-01-17T23:21:49.692Z,11.50
2023-01-17T23:24:21.954Z,11.70
2023-01-17T23:27:08.048Z,8.40
2023-01-17T23:29:40.251Z,13.70
2023-01-17T23:32:12.567Z,9.40
2023-01-17T23:34:44.888Z,8.70
2023-01-17T23:37:17.120Z,10.80
2023-01-17T23:39:49.401Z,10.40
2023-01-17T23:42:39.083Z,16.60
2023-01-17T23:45:13.005Z,11.50
2023-01-17T23:47:47.430Z,12.30
2023-01-17T23:50:20.078Z,12.50
2023-01-17T23:52:52.392Z,8.80
2023-01-17T23:55:24.565Z,12.00
2023-01-17T23:57:56.800Z,14.60
